sensor_id;sensor_type;location;lat;lon;timestamp;temperature;humidity
29575;DHT22;16507;51.046;6.406;2023-08-01T00:02:11;17.70;99.90
29575;DHT22;16507;51.046;6.406;2023-08-01T00:04:37;17.60;99.90
29575;DHT22;16507;51.046;6.406;2023-08-01T00:07:02;17.70;99.90
29575;DHT22;16507;51.046;6.406;2023-08-01T00:09:28;17.70;99.90
29575;DHT22;16507;51.046;6.406;2023-08-01T00:11:53;17.70;99.90
29575;DHT22;16507;51.046;6.406;2023-08-01T00:14:20;17.70;99.90
29575;DHT22;16507;51.046;6.406;2023-08-01T00:16:52;17.60;99.90
29575;DHT22;16507;51.046;6.406;2023-08-01T00:19:18;17.60;99.90
29575;DHT22;16507;51.046;6.406;2023-08-01T00:21:44;17.60;99.90
29575;DHT22;16507;51.046;6.406;2023-08-01T00:24:09;17.50;99.90
29575;DHT22;16507;51.046;6.406;2023-08-01T00:26:35;17.70;99.90
29575;DHT22;16507;51.046;6.406;2023-08-01T00:29:01;17.50;99.90
29575;DHT22;16507;51.046;6.406;2023-08-01T00:31:26;17.60;99.90
29575;DHT22;16507;51.046;6.406;2023-08-01T00:33:52;17.60;99.90
29575;DHT22;16507;51.046;6.406;2023-08-01T00:36:18;17.40;99.90
29575;DHT22;16507;51.046;6.406;2023-08-01T00:38:43;17.70;99.90
29575;DHT22;16507;51.046;6.406;2023-08-01T00:41:10;17.60;99.90
29575;DHT22;16507;51.046;6.406;2023-08-01T00:43:35;17.40;99.90
29575;DHT22;16507;51.046;6.406;2023-08-01T00:46:04;17.30;99.90
29575;DHT22;16507;51.046;6.406;2023-08-01T00:48:31;17.50;99.90
29575;DHT22;16507;51.046;6.406;2023-08-01T00:51:01;17.50;99.90
29575;DHT22;16507;51.046;6.406;2023-08-01T00:53:28;17.30;99.90
29575;DHT22;16507;51.046;6.406;2023-08-01T00:55:55;17.10;99.90
29575;DHT22;16507;51.046;6.406;2023-08-01T00:58:21;17.30;99.90
29575;DHT22;16507;51.046;6.406;2023-08-01T01:00:47;17.30;99.90
29575;DHT22;16507;51.046;6.406;2023-08-01T01:03:14;17.10;99.90
29575;DHT22;16507;51.046;6.406;2023-08-01T01:05:49;17.10;99.90
29575;DHT22;16507;51.046;6.406;2023-08-01T01:08:18;17.10;99.90
29575;DHT22;16507;51.046;6.406;2023-08-01T01:10:44;17.00;99.90
29575;DHT22;16507;51.046;6.406;2023-08-01T01:13:09;16.90;99.90
29575;DHT22;16507;51.046;6.406;2023-08-01T01:15:35;17.00;99.90
29575;DHT22;16507;51.046;6.406;2023-08-01T01:18:01;17.00;99.90
29575;DHT22;16507;51.046;6.406;2023-08-01T01:20:33;17.10;99.90
29575;DHT22;16507;51.046;6.406;2023-08-01T01:23:00;17.00;99.90
29575;DHT22;16507;51.046;6.406;2023-08-01T01:25:27;17.20;99.90
29575;DHT22;16507;51.046;6.406;2023-08-01T01:27:54;17.00;99.90
29575;DHT22;16507;51.046;6.406;2023-08-01T01:30:20;17.00;99.90
29575;DHT22;16507;51.046;6.406;2023-08-01T01:32:46;17.00;99.90
29575;DHT22;16507;51.046;6.406;2023-08-01T01:35:12;16.90;99.90
29575;DHT22;16507;51.046;6.406;2023-08-01T01:37:38;17.10;99.90
29575;DHT22;16507;51.046;6.406;2023-08-01T01:40:04;16.90;99.90
29575;DHT22;16507;51.046;6.406;2023-08-01T01:42:29;17.00;99.90
29575;DHT22;16507;51.046;6.406;2023-08-01T01:44:55;16.90;99.90
29575;DHT22;16507;51.046;6.406;2023-08-01T01:47:20;17.00;99.90
29575;DHT22;16507;51.046;6.406;2023-08-01T01:49:46;16.90;99.90
29575;DHT22;16507;51.046;6.406;2023-08-01T01:52:11;16.80;99.90
29575;DHT22;16507;51.046;6.406;2023-08-01T01:54:37;16.80;99.90
29575;DHT22;16507;51.046;6.406;2023-08-01T01:57:02;16.70;99.90
29575;DHT22;16507;51.046;6.406;2023-08-01T01:59:28;16.80;99.90
29575;DHT22;16507;51.046;6.406;2023-08-01T02:01:54;16.70;99.90
29575;DHT22;16507;51.046;6.406;2023-08-01T02:04:20;16.80;99.90
29575;DHT22;16507;51.046;6.406;2023-08-01T02:06:45;16.80;99.90
29575;DHT22;16507;51.046;6.406;2023-08-01T02:09:11;16.80;99.90
29575;DHT22;16507;51.046;6.406;2023-08-01T02:11:36;16.70;99.90
29575;DHT22;16507;51.046;6.406;2023-08-01T02:14:02;16.70;99.90
29575;DHT22;16507;51.046;6.406;2023-08-01T02:16:28;16.60;99.90
29575;DHT22;16507;51.046;6.406;2023-08-01T02:18:54;16.70;99.90
29575;DHT22;16507;51.046;6.406;2023-08-01T02:21:19;16.80;99.90
29575;DHT22;16507;51.046;6.406;2023-08-01T02:23:45;16.70;99.90
29575;DHT22;16507;51.046;6.406;2023-08-01T02:26:10;16.70;99.90
29575;DHT22;16507;51.046;6.406;2023-08-01T02:28:36;16.70;99.90
29575;DHT22;16507;51.046;6.406;2023-08-01T02:31:02;16.60;99.90
29575;DHT22;16507;51.046;6.406;2023-08-01T02:33:27;16.60;99.90
29575;DHT22;16507;51.046;6.406;2023-08-01T02:35:53;16.60;99.90
29575;DHT22;16507;51.046;6.406;2023-08-01T02:38:18;16.70;99.90
29575;DHT22;16507;51.046;6.406;2023-08-01T02:40:44;16.60;99.90
29575;DHT22;16507;51.046;6.406;2023-08-01T02:43:10;16.70;99.90
29575;DHT22;16507;51.046;6.406;2023-08-01T02:45:35;16.80;99.90
29575;DHT22;16507;51.046;6.406;2023-08-01T02:48:01;16.70;99.90
29575;DHT22;16507;51.046;6.406;2023-08-01T02:50:26;16.60;99.90
29575;DHT22;16507;51.046;6.406;2023-08-01T02:52:52;16.70;99.90
29575;DHT22;16507;51.046;6.406;2023-08-01T02:55:17;16.70;99.90
29575;DHT22;16507;51.046;6.406;2023-08-01T02:57:43;16.70;99.90
29575;DHT22;16507;51.046;6.406;2023-08-01T03:00:09;16.60;99.90
29575;DHT22;16507;51.046;6.406;2023-08-01T03:02:37;16.60;99.90
29575;DHT22;16507;51.046;6.406;2023-08-01T03:05:08;16.60;99.90
29575;DHT22;16507;51.046;6.406;2023-08-01T03:07:33;16.70;99.90
29575;DHT22;16507;51.046;6.406;2023-08-01T03:09:59;16.60;99.90
29575;DHT22;16507;51.046;6.406;2023-08-01T03:12:25;16.70;99.90
29575;DHT22;16507;51.046;6.406;2023-08-01T03:14:51;16.60;99.90
29575;DHT22;16507;51.046;6.406;2023-08-01T03:17:17;16.60;99.90
29575;DHT22;16507;51.046;6.406;2023-08-01T03:19:42;16.40;99.90
29575;DHT22;16507;51.046;6.406;2023-08-01T03:22:09;16.40;99.90
29575;DHT22;16507;51.046;6.406;2023-08-01T03:24:35;16.40;99.90
29575;DHT22;16507;51.046;6.406;2023-08-01T03:27:01;16.30;99.90
29575;DHT22;16507;51.046;6.406;2023-08-01T03:29:26;16.20;99.90
29575;DHT22;16507;51.046;6.406;2023-08-01T03:31:52;16.20;99.90
29575;DHT22;16507;51.046;6.406;2023-08-01T03:34:18;16.10;99.90
29575;DHT22;16507;51.046;6.406;2023-08-01T03:36:44;16.10;99.90
29575;DHT22;16507;51.046;6.406;2023-08-01T03:39:10;16.10;99.90
29575;DHT22;16507;51.046;6.406;2023-08-01T03:41:36;16.10;99.90
29575;DHT22;16507;51.046;6.406;2023-08-01T03:44:02;16.10;99.90
29575;DHT22;16507;51.046;6.406;2023-08-01T03:46:28;16.20;99.90
29575;DHT22;16507;51.046;6.406;2023-08-01T03:48:53;16.20;99.90
29575;DHT22;16507;51.046;6.406;2023-08-01T03:51:19;16.10;99.90
29575;DHT22;16507;51.046;6.406;2023-08-01T03:53:46;16.20;99.90
29575;DHT22;16507;51.046;6.406;2023-08-01T03:56:11;16.10;99.90
29575;DHT22;16507;51.046;6.406;2023-08-01T03:58:37;16.20;99.90
29575;DHT22;16507;51.046;6.406;2023-08-01T04:01:03;16.00;99.90
29575;DHT22;16507;51.046;6.406;2023-08-01T04:03:28;16.00;99.90
29575;DHT22;16507;51.046;6.406;2023-08-01T04:05:54;16.10;99.90
29575;DHT22;16507;51.046;6.406;2023-08-01T04:08:20;16.00;99.90
29575;DHT22;16507;51.046;6.406;2023-08-01T04:10:45;15.80;99.90
29575;DHT22;16507;51.046;6.406;2023-08-01T04:13:11;15.90;99.90
29575;DHT22;16507;51.046;6.406;2023-08-01T04:15:36;15.90;99.90
29575;DHT22;16507;51.046;6.406;2023-08-01T04:18:02;16.00;99.90
29575;DHT22;16507;51.046;6.406;2023-08-01T04:20:28;15.90;99.90
29575;DHT22;16507;51.046;6.406;2023-08-01T04:22:53;16.00;99.90
29575;DHT22;16507;51.046;6.406;2023-08-01T04:25:19;15.90;99.90
29575;DHT22;16507;51.046;6.406;2023-08-01T04:27:45;15.90;99.90
29575;DHT22;16507;51.046;6.406;2023-08-01T04:30:11;15.90;99.90
29575;DHT22;16507;51.046;6.406;2023-08-01T04:32:37;15.90;99.90
29575;DHT22;16507;51.046;6.406;2023-08-01T04:35:03;15.90;99.90
29575;DHT22;16507;51.046;6.406;2023-08-01T04:37:28;16.00;99.90
29575;DHT22;16507;51.046;6.406;2023-08-01T04:39:54;15.80;99.90
29575;DHT22;16507;51.046;6.406;2023-08-01T04:42:19;15.90;99.90
29575;DHT22;16507;51.046;6.406;2023-08-01T04:44:45;15.80;99.90
29575;DHT22;16507;51.046;6.406;2023-08-01T04:47:11;15.80;99.90
29575;DHT22;16507;51.046;6.406;2023-08-01T04:49:36;15.80;99.90
29575;DHT22;16507;51.046;6.406;2023-08-01T04:52:02;15.80;99.90
29575;DHT22;16507;51.046;6.406;2023-08-01T04:54:28;15.70;99.90
29575;DHT22;16507;51.046;6.406;2023-08-01T04:56:53;15.60;99.90
29575;DHT22;16507;51.046;6.406;2023-08-01T04:59:19;15.70;99.90
29575;DHT22;16507;51.046;6.406;2023-08-01T05:01:44;15.60;99.90
29575;DHT22;16507;51.046;6.406;2023-08-01T05:04:10;15.60;99.90
29575;DHT22;16507;51.046;6.406;2023-08-01T05:06:36;15.50;99.90
29575;DHT22;16507;51.046;6.406;2023-08-01T05:09:02;15.70;99.90
29575;DHT22;16507;51.046;6.406;2023-08-01T05:11:28;15.90;99.90
29575;DHT22;16507;51.046;6.406;2023-08-01T05:13:54;16.80;99.90
29575;DHT22;16507;51.046;6.406;2023-08-01T05:16:21;16.90;99.90
29575;DHT22;16507;51.046;6.406;2023-08-01T05:18:47;16.50;99.90
29575;DHT22;16507;51.046;6.406;2023-08-01T05:21:13;16.30;99.90
29575;DHT22;16507;51.046;6.406;2023-08-01T05:23:38;16.20;99.90
29575;DHT22;16507;51.046;6.406;2023-08-01T05:26:04;16.30;99.90
29575;DHT22;16507;51.046;6.406;2023-08-01T05:28:29;16.20;99.90
29575;DHT22;16507;51.046;6.406;2023-08-01T05:30:55;16.20;99.90
29575;DHT22;16507;51.046;6.406;2023-08-01T05:33:20;16.20;99.90
29575;DHT22;16507;51.046;6.406;2023-08-01T05:35:46;16.10;99.90
29575;DHT22;16507;51.046;6.406;2023-08-01T05:38:11;16.20;99.90
29575;DHT22;16507;51.046;6.406;2023-08-01T05:40:37;16.20;99.90
29575;DHT22;16507;51.046;6.406;2023-08-01T05:43:03;16.40;99.90
29575;DHT22;16507;51.046;6.406;2023-08-01T05:45:29;17.30;99.90
29575;DHT22;16507;51.046;6.406;2023-08-01T05:47:55;17.20;99.90
29575;DHT22;16507;51.046;6.406;2023-08-01T05:50:21;17.20;99.90
29575;DHT22;16507;51.046;6.406;2023-08-01T05:52:46;17.10;99.90
29575;DHT22;16507;51.046;6.406;2023-08-01T05:55:12;16.90;99.90
29575;DHT22;16507;51.046;6.406;2023-08-01T05:57:37;16.90;99.90
29575;DHT22;16507;51.046;6.406;2023-08-01T06:00:03;16.70;99.90
29575;DHT22;16507;51.046;6.406;2023-08-01T06:02:29;16.70;99.90
29575;DHT22;16507;51.046;6.406;2023-08-01T06:04:54;16.80;99.90
29575;DHT22;16507;51.046;6.406;2023-08-01T06:07:20;16.80;99.90
29575;DHT22;16507;51.046;6.406;2023-08-01T06:09:49;16.90;99.90
29575;DHT22;16507;51.046;6.406;2023-08-01T06:12:17;16.90;99.90
29575;DHT22;16507;51.046;6.406;2023-08-01T06:14:42;16.80;99.90
29575;DHT22;16507;51.046;6.406;2023-08-01T06:17:08;16.80;99.90
29575;DHT22;16507;51.046;6.406;2023-08-01T06:19:33;17.00;99.90
29575;DHT22;16507;51.046;6.406;2023-08-01T06:21:59;17.00;99.90
29575;DHT22;16507;51.046;6.406;2023-08-01T06:24:25;16.90;99.90
29575;DHT22;16507;51.046;6.406;2023-08-01T06:26:51;16.90;99.90
29575;DHT22;16507;51.046;6.406;2023-08-01T06:29:17;16.90;99.90
29575;DHT22;16507;51.046;6.406;2023-08-01T06:31:42;16.90;99.90
29575;DHT22;16507;51.046;6.406;2023-08-01T06:34:08;17.00;99.90
29575;DHT22;16507;51.046;6.406;2023-08-01T06:36:33;17.00;99.90
29575;DHT22;16507;51.046;6.406;2023-08-01T06:39:00;17.10;99.90
29575;DHT22;16507;51.046;6.406;2023-08-01T06:41:26;17.40;99.90
29575;DHT22;16507;51.046;6.406;2023-08-01T06:43:51;17.60;99.90
29575;DHT22;16507;51.046;6.406;2023-08-01T06:46:17;17.80;99.90
29575;DHT22;16507;51.046;6.406;2023-08-01T06:48:42;17.70;99.90
29575;DHT22;16507;51.046;6.406;2023-08-01T06:51:08;17.60;99.90
29575;DHT22;16507;51.046;6.406;2023-08-01T06:53:34;17.40;99.90
29575;DHT22;16507;51.046;6.406;2023-08-01T06:55:59;17.40;99.90
29575;DHT22;16507;51.046;6.406;2023-08-01T06:58:25;17.50;99.90
29575;DHT22;16507;51.046;6.406;2023-08-01T07:00:50;17.50;99.90
29575;DHT22;16507;51.046;6.406;2023-08-01T07:03:16;17.70;99.90
29575;DHT22;16507;51.046;6.406;2023-08-01T07:05:42;17.70;99.90
29575;DHT22;16507;51.046;6.406;2023-08-01T07:08:07;17.70;99.90
29575;DHT22;16507;51.046;6.406;2023-08-01T07:10:36;17.60;99.90
29575;DHT22;16507;51.046;6.406;2023-08-01T07:13:03;17.50;99.90
29575;DHT22;16507;51.046;6.406;2023-08-01T07:15:34;17.40;99.90
29575;DHT22;16507;51.046;6.406;2023-08-01T07:18:00;17.40;99.90
29575;DHT22;16507;51.046;6.406;2023-08-01T07:20:25;17.50;99.90
29575;DHT22;16507;51.046;6.406;2023-08-01T07:22:51;17.50;99.90
29575;DHT22;16507;51.046;6.406;2023-08-01T07:25:16;17.60;99.90
29575;DHT22;16507;51.046;6.406;2023-08-01T07:27:45;17.80;99.90
29575;DHT22;16507;51.046;6.406;2023-08-01T07:30:11;18.20;99.90
29575;DHT22;16507;51.046;6.406;2023-08-01T07:32:37;18.40;99.90
29575;DHT22;16507;51.046;6.406;2023-08-01T07:35:04;18.30;99.90
29575;DHT22;16507;51.046;6.406;2023-08-01T07:37:30;18.50;99.90
29575;DHT22;16507;51.046;6.406;2023-08-01T07:39:56;18.60;99.90
29575;DHT22;16507;51.046;6.406;2023-08-01T07:42:22;18.40;99.90
29575;DHT22;16507;51.046;6.406;2023-08-01T07:44:47;18.30;99.90
29575;DHT22;16507;51.046;6.406;2023-08-01T07:47:13;18.30;99.90
29575;DHT22;16507;51.046;6.406;2023-08-01T07:49:39;18.10;99.90
29575;DHT22;16507;51.046;6.406;2023-08-01T07:52:05;17.80;99.90
29575;DHT22;16507;51.046;6.406;2023-08-01T07:54:30;17.60;99.90
29575;DHT22;16507;51.046;6.406;2023-08-01T07:56:56;17.60;99.90
29575;DHT22;16507;51.046;6.406;2023-08-01T07:59:21;17.90;99.90
29575;DHT22;16507;51.046;6.406;2023-08-01T08:01:47;17.90;99.90
29575;DHT22;16507;51.046;6.406;2023-08-01T08:04:13;18.00;99.90
29575;DHT22;16507;51.046;6.406;2023-08-01T08:06:40;18.20;99.90
29575;DHT22;16507;51.046;6.406;2023-08-01T08:09:06;18.30;99.90
29575;DHT22;16507;51.046;6.406;2023-08-01T08:11:32;18.30;99.90
29575;DHT22;16507;51.046;6.406;2023-08-01T08:13:58;18.20;99.90
29575;DHT22;16507;51.046;6.406;2023-08-01T08:16:27;18.20;99.90
29575;DHT22;16507;51.046;6.406;2023-08-01T08:18:53;18.10;99.90
29575;DHT22;16507;51.046;6.406;2023-08-01T08:21:18;18.10;99.90
29575;DHT22;16507;51.046;6.406;2023-08-01T08:23:44;18.00;99.90
29575;DHT22;16507;51.046;6.406;2023-08-01T08:26:10;18.10;99.90
29575;DHT22;16507;51.046;6.406;2023-08-01T08:28:36;18.70;99.90
29575;DHT22;16507;51.046;6.406;2023-08-01T08:31:02;19.00;99.90
29575;DHT22;16507;51.046;6.406;2023-08-01T08:33:29;19.20;99.90
29575;DHT22;16507;51.046;6.406;2023-08-01T08:35:54;19.40;99.90
29575;DHT22;16507;51.046;6.406;2023-08-01T08:38:20;19.40;99.90
29575;DHT22;16507;51.046;6.406;2023-08-01T08:43:26;18.80;99.90
29575;DHT22;16507;51.046;6.406;2023-08-01T08:45:55;18.70;99.90
29575;DHT22;16507;51.046;6.406;2023-08-01T08:48:22;18.50;99.90
29575;DHT22;16507;51.046;6.406;2023-08-01T08:50:49;18.40;99.90
29575;DHT22;16507;51.046;6.406;2023-08-01T08:53:16;18.40;99.90
29575;DHT22;16507;51.046;6.406;2023-08-01T08:55:42;18.50;99.90
29575;DHT22;16507;51.046;6.406;2023-08-01T08:58:08;18.60;99.90
29575;DHT22;16507;51.046;6.406;2023-08-01T09:00:36;18.70;99.90
29575;DHT22;16507;51.046;6.406;2023-08-01T09:03:03;18.80;99.90
29575;DHT22;16507;51.046;6.406;2023-08-01T09:05:34;19.00;99.90
29575;DHT22;16507;51.046;6.406;2023-08-01T09:08:02;19.20;99.90
29575;DHT22;16507;51.046;6.406;2023-08-01T09:10:31;19.50;99.90
29575;DHT22;16507;51.046;6.406;2023-08-01T09:12:57;19.80;99.90
29575;DHT22;16507;51.046;6.406;2023-08-01T09:15:24;19.50;99.90
29575;DHT22;16507;51.046;6.406;2023-08-01T09:17:51;19.10;99.90
29575;DHT22;16507;51.046;6.406;2023-08-01T09:20:17;19.00;99.90
29575;DHT22;16507;51.046;6.406;2023-08-01T09:22:46;19.20;99.90
29575;DHT22;16507;51.046;6.406;2023-08-01T09:25:13;19.50;99.90
29575;DHT22;16507;51.046;6.406;2023-08-01T09:27:39;19.80;99.90
29575;DHT22;16507;51.046;6.406;2023-08-01T09:30:13;19.70;99.90
29575;DHT22;16507;51.046;6.406;2023-08-01T09:32:50;19.60;99.90
29575;DHT22;16507;51.046;6.406;2023-08-01T09:35:16;19.90;99.90
29575;DHT22;16507;51.046;6.406;2023-08-01T09:37:44;19.80;99.90
29575;DHT22;16507;51.046;6.406;2023-08-01T09:40:10;19.60;99.90
29575;DHT22;16507;51.046;6.406;2023-08-01T09:42:40;19.50;99.90
29575;DHT22;16507;51.046;6.406;2023-08-01T09:45:14;19.40;99.90
29575;DHT22;16507;51.046;6.406;2023-08-01T09:47:40;19.50;99.90
29575;DHT22;16507;51.046;6.406;2023-08-01T09:50:06;19.30;99.90
29575;DHT22;16507;51.046;6.406;2023-08-01T09:52:33;19.10;99.90
29575;DHT22;16507;51.046;6.406;2023-08-01T09:54:58;19.10;99.90
29575;DHT22;16507;51.046;6.406;2023-08-01T09:57:27;19.10;99.90
29575;DHT22;16507;51.046;6.406;2023-08-01T09:59:56;19.30;99.90
29575;DHT22;16507;51.046;6.406;2023-08-01T10:02:24;19.50;99.90
29575;DHT22;16507;51.046;6.406;2023-08-01T10:04:52;19.60;99.90
29575;DHT22;16507;51.046;6.406;2023-08-01T10:07:23;19.70;99.90
29575;DHT22;16507;51.046;6.406;2023-08-01T10:09:50;19.90;99.90
29575;DHT22;16507;51.046;6.406;2023-08-01T10:12:17;20.00;99.90
29575;DHT22;16507;51.046;6.406;2023-08-01T10:14:44;20.40;99.90
29575;DHT22;16507;51.046;6.406;2023-08-01T10:17:11;20.60;99.90
29575;DHT22;16507;51.046;6.406;2023-08-01T10:19:37;21.00;99.90
29575;DHT22;16507;51.046;6.406;2023-08-01T10:22:06;20.90;99.90
29575;DHT22;16507;51.046;6.406;2023-08-01T10:24:32;20.30;99.90
29575;DHT22;16507;51.046;6.406;2023-08-01T10:27:18;20.50;99.90
29575;DHT22;16507;51.046;6.406;2023-08-01T10:29:44;20.60;99.90
29575;DHT22;16507;51.046;6.406;2023-08-01T10:32:10;20.50;99.90
29575;DHT22;16507;51.046;6.406;2023-08-01T10:34:36;20.60;99.90
29575;DHT22;16507;51.046;6.406;2023-08-01T10:37:01;20.90;99.90
29575;DHT22;16507;51.046;6.406;2023-08-01T10:39:28;21.10;99.90
29575;DHT22;16507;51.046;6.406;2023-08-01T10:42:01;21.30;99.90
29575;DHT22;16507;51.046;6.406;2023-08-01T10:44:27;21.30;99.90
29575;DHT22;16507;51.046;6.406;2023-08-01T10:46:59;21.10;99.90
29575;DHT22;16507;51.046;6.406;2023-08-01T10:49:42;21.00;99.90
29575;DHT22;16507;51.046;6.406;2023-08-01T10:52:25;21.00;99.90
29575;DHT22;16507;51.046;6.406;2023-08-01T10:55:00;20.90;99.90
29575;DHT22;16507;51.046;6.406;2023-08-01T10:57:31;20.90;99.90
29575;DHT22;16507;51.046;6.406;2023-08-01T10:59:58;21.10;99.90
29575;DHT22;16507;51.046;6.406;2023-08-01T11:02:25;21.60;99.90
29575;DHT22;16507;51.046;6.406;2023-08-01T11:05:02;21.50;99.90
29575;DHT22;16507;51.046;6.406;2023-08-01T11:07:28;21.30;99.90
29575;DHT22;16507;51.046;6.406;2023-08-01T11:10:13;21.80;99.90
29575;DHT22;16507;51.046;6.406;2023-08-01T11:12:43;22.30;99.90
29575;DHT22;16507;51.046;6.406;2023-08-01T11:15:11;22.10;99.90
29575;DHT22;16507;51.046;6.406;2023-08-01T11:17:37;21.80;99.80
29575;DHT22;16507;51.046;6.406;2023-08-01T11:20:05;21.40;99.90
29575;DHT22;16507;51.046;6.406;2023-08-01T11:22:31;21.20;99.90
29575;DHT22;16507;51.046;6.406;2023-08-01T11:24:57;21.80;99.90
29575;DHT22;16507;51.046;6.406;2023-08-01T11:27:24;22.40;99.90
29575;DHT22;16507;51.046;6.406;2023-08-01T11:29:51;22.80;75.30
29575;DHT22;16507;51.046;6.406;2023-08-01T11:32:16;22.50;54.50
29575;DHT22;16507;51.046;6.406;2023-08-01T11:34:43;21.80;74.10
29575;DHT22;16507;51.046;6.406;2023-08-01T11:37:20;21.80;99.90
29575;DHT22;16507;51.046;6.406;2023-08-01T11:39:46;22.30;92.30
29575;DHT22;16507;51.046;6.406;2023-08-01T11:42:16;22.30;90.90
29575;DHT22;16507;51.046;6.406;2023-08-01T11:44:42;21.90;94.10
29575;DHT22;16507;51.046;6.406;2023-08-01T11:47:16;21.50;99.90
29575;DHT22;16507;51.046;6.406;2023-08-01T11:49:49;21.30;99.90
29575;DHT22;16507;51.046;6.406;2023-08-01T11:52:28;21.50;96.70
29575;DHT22;16507;51.046;6.406;2023-08-01T11:54:54;21.50;99.90
29575;DHT22;16507;51.046;6.406;2023-08-01T11:57:23;21.40;99.90
29575;DHT22;16507;51.046;6.406;2023-08-01T11:59:54;21.10;99.90
29575;DHT22;16507;51.046;6.406;2023-08-01T12:02:28;20.50;99.90
29575;DHT22;16507;51.046;6.406;2023-08-01T12:04:55;19.60;99.90
29575;DHT22;16507;51.046;6.406;2023-08-01T12:07:21;19.20;99.90
29575;DHT22;16507;51.046;6.406;2023-08-01T12:09:56;18.90;99.90
29575;DHT22;16507;51.046;6.406;2023-08-01T12:12:22;18.80;99.90
29575;DHT22;16507;51.046;6.406;2023-08-01T12:14:48;18.90;99.90
29575;DHT22;16507;51.046;6.406;2023-08-01T12:17:13;18.90;99.90
29575;DHT22;16507;51.046;6.406;2023-08-01T12:19:39;18.90;99.90
29575;DHT22;16507;51.046;6.406;2023-08-01T12:22:05;18.70;99.90
29575;DHT22;16507;51.046;6.406;2023-08-01T12:24:30;18.70;99.90
29575;DHT22;16507;51.046;6.406;2023-08-01T12:26:56;18.60;99.90
29575;DHT22;16507;51.046;6.406;2023-08-01T12:29:22;18.60;99.90
29575;DHT22;16507;51.046;6.406;2023-08-01T12:31:48;17.00;99.90
29575;DHT22;16507;51.046;6.406;2023-08-01T12:34:14;16.30;99.90
29575;DHT22;16507;51.046;6.406;2023-08-01T12:36:40;16.10;99.90
29575;DHT22;16507;51.046;6.406;2023-08-01T12:39:05;16.30;99.90
29575;DHT22;16507;51.046;6.406;2023-08-01T12:41:36;16.40;99.90
29575;DHT22;16507;51.046;6.406;2023-08-01T12:44:02;16.50;99.90
29575;DHT22;16507;51.046;6.406;2023-08-01T12:46:27;16.60;99.90
29575;DHT22;16507;51.046;6.406;2023-08-01T12:48:53;16.60;99.90
29575;DHT22;16507;51.046;6.406;2023-08-01T12:51:19;16.70;99.90
29575;DHT22;16507;51.046;6.406;2023-08-01T12:53:44;16.60;99.90
29575;DHT22;16507;51.046;6.406;2023-08-01T12:56:10;16.90;99.90
29575;DHT22;16507;51.046;6.406;2023-08-01T12:58:36;17.30;99.90
29575;DHT22;16507;51.046;6.406;2023-08-01T13:01:03;17.50;99.90
29575;DHT22;16507;51.046;6.406;2023-08-01T13:03:32;17.60;99.90
29575;DHT22;16507;51.046;6.406;2023-08-01T13:05:58;17.60;99.90
29575;DHT22;16507;51.046;6.406;2023-08-01T13:08:23;17.60;99.90
29575;DHT22;16507;51.046;6.406;2023-08-01T13:10:49;18.10;99.90
29575;DHT22;16507;51.046;6.406;2023-08-01T13:13:16;19.00;99.90
29575;DHT22;16507;51.046;6.406;2023-08-01T13:15:41;19.60;99.90
29575;DHT22;16507;51.046;6.406;2023-08-01T13:18:09;19.60;99.90
29575;DHT22;16507;51.046;6.406;2023-08-01T13:20:35;19.70;99.90
29575;DHT22;16507;51.046;6.406;2023-08-01T13:23:02;20.70;99.90
29575;DHT22;16507;51.046;6.406;2023-08-01T13:25:28;21.60;99.90
29575;DHT22;16507;51.046;6.406;2023-08-01T13:27:54;21.90;99.90
29575;DHT22;16507;51.046;6.406;2023-08-01T13:30:19;21.40;99.90
29575;DHT22;16507;51.046;6.406;2023-08-01T13:32:45;20.60;99.90
29575;DHT22;16507;51.046;6.406;2023-08-01T13:35:11;20.50;99.90
29575;DHT22;16507;51.046;6.406;2023-08-01T13:37:37;20.50;99.90
29575;DHT22;16507;51.046;6.406;2023-08-01T13:40:03;20.70;99.90
29575;DHT22;16507;51.046;6.406;2023-08-01T13:42:29;20.60;99.90
29575;DHT22;16507;51.046;6.406;2023-08-01T13:44:56;20.40;99.90
29575;DHT22;16507;51.046;6.406;2023-08-01T13:47:21;20.40;99.90
29575;DHT22;16507;51.046;6.406;2023-08-01T13:49:47;20.60;99.90
29575;DHT22;16507;51.046;6.406;2023-08-01T13:52:12;20.90;99.90
29575;DHT22;16507;51.046;6.406;2023-08-01T13:54:38;21.20;99.90
29575;DHT22;16507;51.046;6.406;2023-08-01T13:57:04;21.30;99.90
29575;DHT22;16507;51.046;6.406;2023-08-01T13:59:29;21.10;99.90
29575;DHT22;16507;51.046;6.406;2023-08-01T14:01:56;20.90;99.90
29575;DHT22;16507;51.046;6.406;2023-08-01T14:04:22;20.60;99.90
29575;DHT22;16507;51.046;6.406;2023-08-01T14:06:47;20.80;99.90
29575;DHT22;16507;51.046;6.406;2023-08-01T14:09:13;20.90;99.90
29575;DHT22;16507;51.046;6.406;2023-08-01T14:11:39;21.10;99.90
29575;DHT22;16507;51.046;6.406;2023-08-01T14:14:05;21.50;99.90
29575;DHT22;16507;51.046;6.406;2023-08-01T14:16:31;22.00;99.90
29575;DHT22;16507;51.046;6.406;2023-08-01T14:18:57;21.60;91.30
29575;DHT22;16507;51.046;6.406;2023-08-01T14:21:23;21.40;99.80
29575;DHT22;16507;51.046;6.406;2023-08-01T14:23:49;21.50;73.00
29575;DHT22;16507;51.046;6.406;2023-08-01T14:26:14;21.70;61.80
29575;DHT22;16507;51.046;6.406;2023-08-01T14:28:40;21.80;52.00
29575;DHT22;16507;51.046;6.406;2023-08-01T14:31:06;21.60;58.00
29575;DHT22;16507;51.046;6.406;2023-08-01T14:33:33;21.70;59.10
29575;DHT22;16507;51.046;6.406;2023-08-01T14:35:59;22.00;54.20
29575;DHT22;16507;51.046;6.406;2023-08-01T14:38:24;22.00;48.70
29575;DHT22;16507;51.046;6.406;2023-08-01T14:40:51;22.40;55.50
29575;DHT22;16507;51.046;6.406;2023-08-01T14:43:17;23.00;51.30
29575;DHT22;16507;51.046;6.406;2023-08-01T14:45:42;23.40;51.20
29575;DHT22;16507;51.046;6.406;2023-08-01T14:48:08;23.20;43.30
29575;DHT22;16507;51.046;6.406;2023-08-01T14:50:34;23.00;42.40
29575;DHT22;16507;51.046;6.406;2023-08-01T14:53:02;22.40;42.70
29575;DHT22;16507;51.046;6.406;2023-08-01T14:55:29;22.30;48.70
29575;DHT22;16507;51.046;6.406;2023-08-01T14:57:54;22.00;51.60
29575;DHT22;16507;51.046;6.406;2023-08-01T15:00:20;21.50;56.00
29575;DHT22;16507;51.046;6.406;2023-08-01T15:02:46;21.10;79.80
29575;DHT22;16507;51.046;6.406;2023-08-01T15:05:13;20.90;87.80
29575;DHT22;16507;51.046;6.406;2023-08-01T15:07:38;21.00;80.40
29575;DHT22;16507;51.046;6.406;2023-08-01T15:10:04;21.40;64.80
29575;DHT22;16507;51.046;6.406;2023-08-01T15:12:30;21.90;63.80
29575;DHT22;16507;51.046;6.406;2023-08-01T15:14:56;21.70;64.20
29575;DHT22;16507;51.046;6.406;2023-08-01T15:17:23;21.40;60.20
29575;DHT22;16507;51.046;6.406;2023-08-01T15:19:49;21.00;81.20
29575;DHT22;16507;51.046;6.406;2023-08-01T15:22:18;20.90;92.90
29575;DHT22;16507;51.046;6.406;2023-08-01T15:24:45;20.70;90.10
29575;DHT22;16507;51.046;6.406;2023-08-01T15:27:11;20.50;91.00
29575;DHT22;16507;51.046;6.406;2023-08-01T15:29:37;20.40;99.90